Aviation Digital Data Service (ADDS)

Output produced by METARs form (1210 UTC 19 January 2019)
found at http://www.aviationweather.gov/metar/data/
 
METAR text: ZUUU 191200Z 08003MPS CAVOK 11/M01 Q1022 NOSIG
Conditions at: ZUUU (CHENGDU , CN) observed 1200 UTC 19 January 2019
Temperature: 11.0°C (52°F)
Dewpoint: -1.0°C (30°F) [RH = 43%]
Pressure (altimeter): 30.18 inches Hg (1022.0 mb)
Winds: from the E (80 degrees) at 7 MPH (6 knots; 3.1 m/s)
Visibility: 6 or more miles (10+ km)
Ceiling: ceiling and visibility are OK
Clouds: unknown
Weather: no significant weather observed at this time

METAR text: ZUUU 191100Z 10004MPS 050V130 CAVOK 12/M02 Q1020 NOSIG
Conditions at: ZUUU (CHENGDU , CN) observed 1100 UTC 19 January 2019
Temperature: 12.0°C (54°F)
Dewpoint: -2.0°C (28°F) [RH = 38%]
Pressure (altimeter): 30.12 inches Hg (1020.0 mb)
Winds: from the E (100 degrees) at 9 MPH (8 knots; 4.1 m/s)
Visibility: 6 or more miles (10+ km)
Ceiling: ceiling and visibility are OK
Clouds: unknown
Weather: no significant weather observed at this time

METAR text: ZUUU 191000Z VRB01MPS CAVOK 13/M02 Q1019 NOSIG
Conditions at: ZUUU (CHENGDU , CN) observed 1000 UTC 19 January 2019
Temperature: 13.0°C (55°F)
Dewpoint: -2.0°C (28°F) [RH = 35%]
Pressure (altimeter): 30.09 inches Hg (1019.0 mb)
Winds: variable direction winds at 2 MPH (2 knots; 1.0 m/s)
Visibility: 6 or more miles (10+ km)
Ceiling: ceiling and visibility are OK
Clouds: unknown
Weather: no significant weather observed at this time

METAR text: ZUUU 190900Z 10002MPS 010V150 CAVOK 14/M02 Q1018 NOSIG
Conditions at: ZUUU (CHENGDU , CN) observed 0900 UTC 19 January 2019
Temperature: 14.0°C (57°F)
Dewpoint: -2.0°C (28°F) [RH = 33%]
Pressure (altimeter): 30.06 inches Hg (1018.0 mb)
Winds: from the E (100 degrees) at 5 MPH (4 knots; 2.1 m/s)
Visibility: 6 or more miles (10+ km)
Ceiling: ceiling and visibility are OK
Clouds: unknown
Weather: no significant weather observed at this time

METAR text: ZUUU 190800Z 05002MPS 010V100 CAVOK 14/M03 Q1017 NOSIG
Conditions at: ZUUU (CHENGDU , CN) observed 0800 UTC 19 January 2019
Temperature: 14.0°C (57°F)
Dewpoint: -3.0°C (27°F) [RH = 31%]
Pressure (altimeter): 30.03 inches Hg (1017.0 mb)
Winds: from the NE (50 degrees) at 5 MPH (4 knots; 2.1 m/s)
Visibility: 6 or more miles (10+ km)
Ceiling: ceiling and visibility are OK
Clouds: unknown
Weather: no significant weather observed at this time

METAR text: ZUUU 190700Z 10004MPS 060V130 CAVOK 14/M03 Q1018 NOSIG
Conditions at: ZUUU (CHENGDU , CN) observed 0700 UTC 19 January 2019
Temperature: 14.0°C (57°F)
Dewpoint: -3.0°C (27°F) [RH = 31%]
Pressure (altimeter): 30.06 inches Hg (1018.0 mb)
Winds: from the E (100 degrees) at 9 MPH (8 knots; 4.1 m/s)
Visibility: 6 or more miles (10+ km)
Ceiling: ceiling and visibility are OK
Clouds: unknown
Weather: no significant weather observed at this time

METAR text: ZUUU 190600Z VRB01MPS CAVOK 14/M02 Q1018 NOSIG
Conditions at: ZUUU (CHENGDU , CN) observed 0600 UTC 19 January 2019
Temperature: 14.0°C (57°F)
Dewpoint: -2.0°C (28°F) [RH = 33%]
Pressure (altimeter): 30.06 inches Hg (1018.0 mb)
Winds: variable direction winds at 2 MPH (2 knots; 1.0 m/s)
Visibility: 6 or more miles (10+ km)
Ceiling: ceiling and visibility are OK
Clouds: unknown
Weather: no significant weather observed at this time

METAR text: ZUUU 190500Z 17003MPS 110V280 CAVOK 13/M00 Q1020 NOSIG
Conditions at: ZUUU (CHENGDU , CN) observed 0500 UTC 19 January 2019
Temperature: 13.0°C (55°F)
Dewpoint: 0.0°C (32°F) [RH = 41%]
Pressure (altimeter): 30.12 inches Hg (1020.0 mb)
Winds: from the S (170 degrees) at 7 MPH (6 knots; 3.1 m/s)
Visibility: 6 or more miles (10+ km)
Ceiling: ceiling and visibility are OK
Clouds: unknown
Weather: no significant weather observed at this time

METAR text: ZUUU 190400Z VRB01MPS CAVOK 11/03 Q1022 NOSIG
Conditions at: ZUUU (CHENGDU , CN) observed 0400 UTC 19 January 2019
Temperature: 11.0°C (52°F)
Dewpoint: 3.0°C (37°F) [RH = 58%]
Pressure (altimeter): 30.18 inches Hg (1022.0 mb)
Winds: variable direction winds at 2 MPH (2 knots; 1.0 m/s)
Visibility: 6 or more miles (10+ km)
Ceiling: ceiling and visibility are OK
Clouds: unknown
Weather: no significant weather observed at this time

METAR text: ZUUU 190300Z 00000MPS 8000 NSC 09/04 Q1023 NOSIG
Conditions at: ZUUU (CHENGDU , CN) observed 0300 UTC 19 January 2019
Temperature: 9.0°C (48°F)
Dewpoint: 4.0°C (39°F) [RH = 71%]
Pressure (altimeter): 30.21 inches Hg (1023.0 mb)
Winds: calm
Visibility: 5 miles ( 8 km)
Ceiling: at least 12,000 feet AGL
Clouds: sky clear below 12,000 feet AGL
Weather: no significant weather observed at this time

METAR text: ZUUU 190200Z VRB01MPS 4500 BR NSC 06/05 Q1023 NOSIG
Conditions at: ZUUU (CHENGDU , CN) observed 0200 UTC 19 January 2019
Temperature: 6.0°C (43°F)
Dewpoint: 5.0°C (41°F) [RH = 93%]
Pressure (altimeter): 30.21 inches Hg (1023.0 mb)
Winds: variable direction winds at 2 MPH (2 knots; 1.0 m/s)
Visibility: 2.80 miles (4.51 km)
Ceiling: at least 12,000 feet AGL
Clouds: sky clear below 12,000 feet AGL
Weather: BR  (mist)

METAR text: ZUUU 190100Z 00000MPS 4500 BR NSC 03/03 Q1023 NOSIG
Conditions at: ZUUU (CHENGDU , CN) observed 0100 UTC 19 January 2019
Temperature: 3.0°C (37°F)
Dewpoint: 3.0°C (37°F) [RH = 100%]
Pressure (altimeter): 30.21 inches Hg (1023.0 mb)
Winds: calm
Visibility: 2.80 miles (4.51 km)
Ceiling: at least 12,000 feet AGL
Clouds: sky clear below 12,000 feet AGL
Weather: BR  (mist)

METAR text: ZUUU 190000Z 00000MPS 2700 BR NSC 02/02 Q1022 BECMG TL0130 3000
Conditions at: ZUUU (CHENGDU , CN) observed 0000 UTC 19 January 2019
Temperature: 2.0°C (36°F)
Dewpoint: 2.0°C (36°F) [RH = 100%]
Pressure (altimeter): 30.18 inches Hg (1022.0 mb)
Winds: calm
Visibility: 1.68 miles (2.70 km)
Ceiling: at least 12,000 feet AGL
Clouds: sky clear below 12,000 feet AGL
Weather: BR  (mist)

METAR text: ZUUU 182300Z 00000MPS 2700 BR NSC 02/02 Q1021 BECMG TL0030 1400 BR
Conditions at: ZUUU (CHENGDU , CN) observed 2300 UTC 18 January 2019
Temperature: 2.0°C (36°F)
Dewpoint: 2.0°C (36°F) [RH = 100%]
Pressure (altimeter): 30.15 inches Hg (1021.0 mb)
Winds: calm
Visibility: 1.68 miles (2.70 km)
Ceiling: at least 12,000 feet AGL
Clouds: sky clear below 12,000 feet AGL
Weather: BR  (mist)

METAR text: ZUUU 182200Z 00000MPS 2500 BR NSC 02/02 Q1021 BECMG TL2330 1400 BR
Conditions at: ZUUU (CHENGDU , CN) observed 2200 UTC 18 January 2019
Temperature: 2.0°C (36°F)
Dewpoint: 2.0°C (36°F) [RH = 100%]
Pressure (altimeter): 30.15 inches Hg (1021.0 mb)
Winds: calm
Visibility: 1.55 miles (2.49 km)
Ceiling: at least 12,000 feet AGL
Clouds: sky clear below 12,000 feet AGL
Weather: BR  (mist)

METAR text: ZUUU 182100Z 00000MPS 3000 BR NSC 03/03 Q1021 BECMG TL2130 2700 BR
Conditions at: ZUUU (CHENGDU , CN) observed 2100 UTC 18 January 2019
Temperature: 3.0°C (37°F)
Dewpoint: 3.0°C (37°F) [RH = 100%]
Pressure (altimeter): 30.15 inches Hg (1021.0 mb)
Winds: calm
Visibility: 1.86 miles (2.99 km)
Ceiling: at least 12,000 feet AGL
Clouds: sky clear below 12,000 feet AGL
Weather: BR  (mist)

METAR text: ZUUU 182000Z 00000MPS 3500 BR NSC 04/03 Q1021 BECMG TL2130 2700 BR
Conditions at: ZUUU (CHENGDU , CN) observed 2000 UTC 18 January 2019
Temperature: 4.0°C (39°F)
Dewpoint: 3.0°C (37°F) [RH = 93%]
Pressure (altimeter): 30.15 inches Hg (1021.0 mb)
Winds: calm
Visibility: 2.17 miles (3.49 km)
Ceiling: at least 12,000 feet AGL
Clouds: sky clear below 12,000 feet AGL
Weather: BR  (mist)

METAR text: ZUUU 181900Z 00000MPS 4000 BR NSC 05/04 Q1021 BECMG TL2050 2300 BR
Conditions at: ZUUU (CHENGDU , CN) observed 1900 UTC 18 January 2019
Temperature: 5.0°C (41°F)
Dewpoint: 4.0°C (39°F) [RH = 93%]
Pressure (altimeter): 30.15 inches Hg (1021.0 mb)
Winds: calm
Visibility: 2.49 miles (4.01 km)
Ceiling: at least 12,000 feet AGL
Clouds: sky clear below 12,000 feet AGL
Weather: BR  (mist)

METAR text: ZUUU 181800Z 00000MPS 4000 BR NSC 06/04 Q1021 NOSIG
Conditions at: ZUUU (CHENGDU , CN) observed 1800 UTC 18 January 2019
Temperature: 6.0°C (43°F)
Dewpoint: 4.0°C (39°F) [RH = 87%]
Pressure (altimeter): 30.15 inches Hg (1021.0 mb)
Winds: calm
Visibility: 2.49 miles (4.01 km)
Ceiling: at least 12,000 feet AGL
Clouds: sky clear below 12,000 feet AGL
Weather: BR  (mist)

METAR text: ZUUU 181700Z 00000MPS 5000 BR NSC 07/05 Q1021 NOSIG
Conditions at: ZUUU (CHENGDU , CN) observed 1700 UTC 18 January 2019
Temperature: 7.0°C (45°F)
Dewpoint: 5.0°C (41°F) [RH = 87%]
Pressure (altimeter): 30.15 inches Hg (1021.0 mb)
Winds: calm
Visibility: 3 miles ( 5 km)
Ceiling: at least 12,000 feet AGL
Clouds: sky clear below 12,000 feet AGL
Weather: BR  (mist)

METAR text: ZUUU 181600Z 24002MPS 210V270 5000 BR NSC 07/05 Q1021 NOSIG
Conditions at: ZUUU (CHENGDU , CN) observed 1600 UTC 18 January 2019
Temperature: 7.0°C (45°F)
Dewpoint: 5.0°C (41°F) [RH = 87%]
Pressure (altimeter): 30.15 inches Hg (1021.0 mb)
Winds: from the WSW (240 degrees) at 5 MPH (4 knots; 2.1 m/s)
Visibility: 3 miles ( 5 km)
Ceiling: at least 12,000 feet AGL
Clouds: sky clear below 12,000 feet AGL
Weather: BR  (mist)

METAR text: ZUUU 181500Z 00000MPS 5000 BR NSC 07/05 Q1021 NOSIG
Conditions at: ZUUU (CHENGDU , CN) observed 1500 UTC 18 January 2019
Temperature: 7.0°C (45°F)
Dewpoint: 5.0°C (41°F) [RH = 87%]
Pressure (altimeter): 30.15 inches Hg (1021.0 mb)
Winds: calm
Visibility: 3 miles ( 5 km)
Ceiling: at least 12,000 feet AGL
Clouds: sky clear below 12,000 feet AGL
Weather: BR  (mist)

METAR text: ZUUU 181400Z 00000MPS 5000 BR NSC 07/05 Q1021 NOSIG
Conditions at: ZUUU (CHENGDU , CN) observed 1400 UTC 18 January 2019
Temperature: 7.0°C (45°F)
Dewpoint: 5.0°C (41°F) [RH = 87%]
Pressure (altimeter): 30.15 inches Hg (1021.0 mb)
Winds: calm
Visibility: 3 miles ( 5 km)
Ceiling: at least 12,000 feet AGL
Clouds: sky clear below 12,000 feet AGL
Weather: BR  (mist)

METAR text: ZUUU 181300Z 00000MPS 5000 BR NSC 07/05 Q1020 NOSIG
Conditions at: ZUUU (CHENGDU , CN) observed 1300 UTC 18 January 2019
Temperature: 7.0°C (45°F)
Dewpoint: 5.0°C (41°F) [RH = 87%]
Pressure (altimeter): 30.12 inches Hg (1020.0 mb)
Winds: calm
Visibility: 3 miles ( 5 km)
Ceiling: at least 12,000 feet AGL
Clouds: sky clear below 12,000 feet AGL
Weather: BR  (mist)

METAR text: ZUUU 181200Z 00000MPS 5000 BR SCT050 08/05 Q1020 NOSIG
Conditions at: ZUUU (CHENGDU , CN) observed 1200 UTC 18 January 2019
Temperature: 8.0°C (46°F)
Dewpoint: 5.0°C (41°F) [RH = 81%]
Pressure (altimeter): 30.12 inches Hg (1020.0 mb)
Winds: calm
Visibility: 3 miles ( 5 km)
Ceiling: at least 12,000 feet AGL
Clouds: scattered clouds at 5000 feet AGL
Weather: BR  (mist)

METAR text: ZUUU 181100Z 00000MPS 5000 BR FEW020 BKN040 08/05 Q1019 NOSIG
Conditions at: ZUUU (CHENGDU , CN) observed 1100 UTC 18 January 2019
Temperature: 8.0°C (46°F)
Dewpoint: 5.0°C (41°F) [RH = 81%]
Pressure (altimeter): 30.09 inches Hg (1019.0 mb)
Winds: calm
Visibility: 3 miles ( 5 km)
Ceiling: 4000 feet AGL
Clouds: few clouds at 2000 feet AGL
broken clouds at 4000 feet AGL
Weather: BR  (mist)

METAR text: ZUUU 181000Z 00000MPS 4500 BR FEW020 BKN033 08/04 Q1018 NOSIG
Conditions at: ZUUU (CHENGDU , CN) observed 1000 UTC 18 January 2019
Temperature: 8.0°C (46°F)
Dewpoint: 4.0°C (39°F) [RH = 76%]
Pressure (altimeter): 30.06 inches Hg (1018.0 mb)
Winds: calm
Visibility: 2.80 miles (4.51 km)
Ceiling: 3300 feet AGL
Clouds: few clouds at 2000 feet AGL
broken clouds at 3300 feet AGL
Weather: BR  (mist)

METAR text: ZUUU 180900Z VRB01MPS 5000 BR SCT020 BKN033 08/04 Q1017 NOSIG
Conditions at: ZUUU (CHENGDU , CN) observed 0900 UTC 18 January 2019
Temperature: 8.0°C (46°F)
Dewpoint: 4.0°C (39°F) [RH = 76%]
Pressure (altimeter): 30.03 inches Hg (1017.0 mb)
Winds: variable direction winds at 2 MPH (2 knots; 1.0 m/s)
Visibility: 3 miles ( 5 km)
Ceiling: 3300 feet AGL
Clouds: scattered clouds at 2000 feet AGL
broken clouds at 3300 feet AGL
Weather: BR  (mist)

METAR text: ZUUU 180800Z 00000MPS 4500 BR SCT020 BKN033 08/04 Q1017 NOSIG
Conditions at: ZUUU (CHENGDU , CN) observed 0800 UTC 18 January 2019
Temperature: 8.0°C (46°F)
Dewpoint: 4.0°C (39°F) [RH = 76%]
Pressure (altimeter): 30.03 inches Hg (1017.0 mb)
Winds: calm
Visibility: 2.80 miles (4.51 km)
Ceiling: 3300 feet AGL
Clouds: scattered clouds at 2000 feet AGL
broken clouds at 3300 feet AGL
Weather: BR  (mist)

METAR text: ZUUU 180700Z VRB01MPS 4500 BR SCT016 BKN033 08/05 Q1017 NOSIG
Conditions at: ZUUU (CHENGDU , CN) observed 0700 UTC 18 January 2019
Temperature: 8.0°C (46°F)
Dewpoint: 5.0°C (41°F) [RH = 81%]
Pressure (altimeter): 30.03 inches Hg (1017.0 mb)
Winds: variable direction winds at 2 MPH (2 knots; 1.0 m/s)
Visibility: 2.80 miles (4.51 km)
Ceiling: 3300 feet AGL
Clouds: scattered clouds at 1600 feet AGL
broken clouds at 3300 feet AGL
Weather: BR  (mist)

METAR text: ZUUU 180600Z VRB02MPS 4000 BR SCT016 BKN033 08/04 Q1017 NOSIG
Conditions at: ZUUU (CHENGDU , CN) observed 0600 UTC 18 January 2019
Temperature: 8.0°C (46°F)
Dewpoint: 4.0°C (39°F) [RH = 76%]
Pressure (altimeter): 30.03 inches Hg (1017.0 mb)
Winds: variable direction winds at 5 MPH (4 knots; 2.1 m/s)
Visibility: 2.49 miles (4.01 km)
Ceiling: 3300 feet AGL
Clouds: scattered clouds at 1600 feet AGL
broken clouds at 3300 feet AGL
Weather: BR  (mist)

METAR text: ZUUU 180500Z 01002MPS 320V050 3500 BR SCT013 BKN026 07/05 Q1019 NOSIG
Conditions at: ZUUU (CHENGDU , CN) observed 0500 UTC 18 January 2019
Temperature: 7.0°C (45°F)
Dewpoint: 5.0°C (41°F) [RH = 87%]
Pressure (altimeter): 30.09 inches Hg (1019.0 mb)
Winds: from the N (10 degrees) at 5 MPH (4 knots; 2.1 m/s)
Visibility: 2.17 miles (3.49 km)
Ceiling: 2600 feet AGL
Clouds: scattered clouds at 1300 feet AGL
broken clouds at 2600 feet AGL
Weather: BR  (mist)

METAR text: ZUUU 180400Z 01002MPS 320V050 2000 R02L/P2000N R02R/1400D -RA BR SCT010 BKN023 06/05 Q1020 BECMG TL0530 3000
Conditions at: ZUUU (CHENGDU , CN) observed 0400 UTC 18 January 2019
Temperature: 6.0°C (43°F)
Dewpoint: 5.0°C (41°F) [RH = 93%]
Pressure (altimeter): 30.12 inches Hg (1020.0 mb)
Winds: from the N (10 degrees) at 5 MPH (4 knots; 2.1 m/s)
Visibility: 1.24 miles (2.00 km)
Ceiling: 2300 feet AGL
Clouds: scattered clouds at 1000 feet AGL
broken clouds at 2300 feet AGL
Weather: -RA BR  (light rain, mist)

METAR text: ZUUU 180300Z 36002MPS 330V030 1700 R02L/1700N R02R/1300D -RA BR FEW006 SCT008 BKN023 06/05 Q1022 NOSIG
Conditions at: ZUUU (CHENGDU , CN) observed 0300 UTC 18 January 2019
Temperature: 6.0°C (43°F)
Dewpoint: 5.0°C (41°F) [RH = 93%]
Pressure (altimeter): 30.18 inches Hg (1022.0 mb)
Winds: from the N (360 degrees) at 5 MPH (4 knots; 2.1 m/s)
Visibility: 1.06 miles (1.71 km)
Ceiling: 2300 feet AGL
Clouds: few clouds at 600 feet AGL
scattered clouds at 800 feet AGL
broken clouds at 2300 feet AGL
Weather: -RA BR  (light rain, mist)

METAR text: ZUUU 180200Z 36002MPS 330V030 1800 -RA BR SCT007 BKN023 05/05 Q1022 NOSIG
Conditions at: ZUUU (CHENGDU , CN) observed 0200 UTC 18 January 2019
Temperature: 5.0°C (41°F)
Dewpoint: 5.0°C (41°F) [RH = 100%]
Pressure (altimeter): 30.18 inches Hg (1022.0 mb)
Winds: from the N (360 degrees) at 5 MPH (4 knots; 2.1 m/s)
Visibility: 1.12 miles (1.80 km)
Ceiling: 2300 feet AGL
Clouds: scattered clouds at 700 feet AGL
broken clouds at 2300 feet AGL
Weather: -RA BR  (light rain, mist)

METAR text: ZUUU 180100Z 36003MPS 320V030 2500 -RA BR SCT011 BKN023 06/04 Q1021 BECMG TL0230 3000
Conditions at: ZUUU (CHENGDU , CN) observed 0100 UTC 18 January 2019
Temperature: 6.0°C (43°F)
Dewpoint: 4.0°C (39°F) [RH = 87%]
Pressure (altimeter): 30.15 inches Hg (1021.0 mb)
Winds: from the N (360 degrees) at 7 MPH (6 knots; 3.1 m/s)
Visibility: 1.55 miles (2.49 km)
Ceiling: 2300 feet AGL
Clouds: scattered clouds at 1100 feet AGL
broken clouds at 2300 feet AGL
Weather: -RA BR  (light rain, mist)

Forecast for: ZUUU (CHENGDU , CN)
Text: TAF ZUUU 190805Z 1912/2012 02003MPS 3000 BR SCT050 TX12/2006Z TN03/1923Z
Forecast period: 1200 UTC 19 January 2019 to 1200 UTC 20 January 2019
Forecast type: FROM: standard forecast or significant change
Winds: from the NNE (20 degrees) at 7 MPH (6 knots; 3.1 m/s)
Visibility: 1.86 miles (2.99 km)
Ceiling: at least 12,000 feet AGL
Clouds: scattered clouds at 5000 feet AGL
Weather: BR  (mist)